Time;durP1;ratioP1;P1;durP2;ratioP2;P2;SDS_P1;SDS_P2;PMS_P1;PMS_P2;Temp;Humidity;BMP_temperature;BMP_pressure;BME280_temperature;BME280_humidity;BME280_pressure;Samples;Min_cycle;Max_cycle;Signal;HPM_P1;HPM_P2
2022/01/08 00:00:07;;;;;;;;;;;;;;;2.32;81.97;100131.13;6211148;23;20071;-82
2022/01/08 00:03:16;;;;;;;3.00;0.70;;;;;;;2.25;82.19;100134.75;6210039;23;19915;-83
2022/01/08 00:06:20;;;;;;;3.83;1.80;;;;;;;2.14;82.44;100132.44;6209429;23;20082;-82
2022/01/08 00:09:24;;;;;;;2.75;1.10;;;;;;;2.12;82.36;100129.03;6210517;23;20043;-83
2022/01/08 00:12:28;;;;;;;;;;;;;;;1.81;83.76;100118.59;6209646;23;20031;-83
2022/01/08 00:15:32;;;;;;;2.15;1.13;;;;;;;1.89;nan;100111.53;6209474;23;19919;-83
2022/01/08 00:18:35;;;;;;;2.20;1.20;;;;;;;2.09;82.63;100111.06;6208597;23;20135;-83
2022/01/08 00:21:39;;;;;;;6.38;3.47;;;;;;;2.13;82.83;100109.25;6209343;23;20142;-83
2022/01/08 00:24:42;;;;;;;4.03;1.77;;;;;;;1.94;82.95;100103.69;6209838;23;20085;-83
2022/01/08 00:27:45;;;;;;;;;;;;;;;1.81;83.50;100103.97;6210573;23;20066;-83
2022/01/08 00:30:52;;;;;;;2.78;1.55;;;;;;;1.83;83.85;100103.94;6210355;23;19982;-83
2022/01/08 00:33:56;;;;;;;2.50;1.20;;;;;;;1.80;83.91;100107.44;6209456;23;20083;-83
2022/01/08 00:36:59;;;;;;;2.05;1.00;;;;;;;1.88;83.74;100106.41;6190764;23;20062;-82
2022/01/08 00:40:07;;;;;;;;;;;;;;;1.98;83.41;100097.56;6209053;23;20023;-83
2022/01/08 00:43:11;;;;;;;3.15;1.80;;;;;;;2.04;82.91;100102.56;6208365;23;20034;-83
2022/01/08 00:46:14;;;;;;;3.15;1.60;;;;;;;2.02;82.98;100106.94;6210124;23;20039;-83
2022/01/08 00:49:18;;;;;;;4.53;1.50;;;;;;;2.04;82.95;100111.19;6209220;23;20027;-82
2022/01/08 00:52:21;;;;;;;2.72;1.40;;;;;;;2.06;82.65;100103.41;6191087;23;20027;-82
2022/01/08 00:55:25;;;;;;;2.88;1.48;;;;;;;2.14;82.38;100095.44;6208362;23;20108;-83
2022/01/08 00:58:29;;;;;;;3.53;2.05;;;;;;;2.16;82.64;100106.59;6208620;23;20028;-83
2022/01/08 01:01:32;;;;;;;2.83;1.58;;;;;;;2.10;82.45;100103.28;6208871;23;20028;-82
2022/01/08 01:04:36;;;;;;;3.90;1.88;;;;;;;2.00;82.70;100099.22;6208980;23;20024;-83
2022/01/08 01:07:39;;;;;;;3.25;1.58;;;;;;;2.05;82.58;100102.56;6209117;23;20047;-82
2022/01/08 01:10:43;;;;;;;2.95;1.52;;;;;;;2.04;83.04;100100.88;6209778;23;20230;-83
2022/01/08 01:13:47;;;;;;;2.95;1.50;;;;;;;1.93;82.76;100097.69;6207259;23;20526;-83
2022/01/08 01:16:50;;;;;;;2.85;1.20;;;;;;;2.03;82.75;100096.56;6208286;23;20055;-83
2022/01/08 01:19:54;;;;;;;2.03;0.80;;;;;;;1.98;82.47;100094.97;6206903;23;20023;-83
2022/01/08 01:26:29;;;;;;;1.75;0.60;;;;;;;2.00;82.80;100086.31;6209992;23;20027;-83
2022/01/08 01:29:48;;;;;;;1.77;0.77;;;;;;;1.97;83.12;100086.41;6208923;23;20024;-82
2022/01/08 01:43:24;;;;;;;1.00;0.30;;;;;;;2.01;82.92;100085.47;6208412;23;20050;-82
2022/01/08 01:49:49;;;;;;;1.55;0.60;;;;;;;1.92;83.57;100085.69;6208590;23;20059;-82
2022/01/08 01:52:52;;;;;;;2.53;1.52;;;;;;;1.91;83.54;100093.44;6209445;23;20075;-82
2022/01/08 01:55:56;;;;;;;;;;;;;;;2.01;83.13;100082.88;6210325;23;20078;-82
2022/01/08 01:58:59;;;;;;;2.42;1.48;;;;;;;2.01;82.86;100088.03;6210221;23;19973;-83
2022/01/08 02:02:03;;;;;;;3.55;2.10;;;;;;;1.97;83.28;100080.41;6208396;23;20112;-82
2022/01/08 02:05:08;;;;;;;3.72;2.55;;;;;;;1.98;82.97;100082.09;6207938;23;20100;-82
2022/01/08 02:08:13;;;;;;;3.28;2.40;;;;;;;2.06;82.70;100083.59;6207732;23;20024;-83
2022/01/08 02:11:19;;;;;;;3.70;2.17;;;;;;;1.96;83.10;100081.28;6209469;23;20034;-82
2022/01/08 02:14:23;;;;;;;3.33;1.98;;;;;;;2.02;83.28;100092.31;6210294;23;20078;-83
2022/01/08 02:17:27;;;;;;;3.17;1.63;;;;;;;1.92;83.24;100090.84;6210643;23;20347;-82
2022/01/08 02:20:30;;;;;;;;;;;;;;;1.75;84.00;100098.09;6210630;23;20078;-82
2022/01/08 02:23:34;;;;;;;3.38;1.80;;;;;;;1.69;84.64;100093.09;6210707;23;19957;-82
2022/01/08 02:26:37;;;;;;;2.40;1.25;;;;;;;1.81;84.32;100092.81;6210070;23;20215;-82
2022/01/08 02:29:41;;;;;;;2.70;1.25;;;;;;;1.90;83.59;100096.91;6210040;23;20142;-82
2022/01/08 02:32:44;;;;;;;1.98;0.80;;;;;;;1.92;83.38;100101.16;6209362;23;20023;-82
2022/01/08 02:35:48;;;;;;;2.63;1.05;;;;;;;1.92;83.60;100106.31;6210038;23;20023;-82
2022/01/08 05:21:54;;;;;;;1.80;0.68;;;;;;;1.61;84.97;100251.31;6191793;23;21216;-84
2022/01/08 05:25:01;;;;;;;2.03;0.70;;;;;;;1.55;85.82;100266.06;6205105;23;20031;-84
2022/01/08 05:28:05;;;;;;;1.88;0.50;;;;;;;1.70;85.19;100267.50;6201921;23;20032;-83
2022/01/08 05:31:15;;;;;;;2.83;0.80;;;;;;;1.83;84.52;100271.50;6205689;23;20411;-84
2022/01/08 05:34:44;;;;;;;1.33;0.57;;;;;;;1.84;84.24;100270.63;6205770;23;20586;-82
2022/01/08 05:37:48;;;;;;;2.03;0.80;;;;;;;1.78;84.64;100274.16;6204260;23;20031;-83
2022/01/08 05:41:18;;;;;;;1.70;0.80;;;;;;;1.83;84.25;100276.66;6202575;23;20889;-83
2022/01/08 05:44:22;;;;;;;2.72;1.30;;;;;;;1.82;84.19;100280.13;6207657;23;20356;-83
2022/01/08 05:47:32;;;;;;;2.92;1.20;;;;;;;1.66;84.90;100289.03;6208844;23;20154;-83
2022/01/08 05:50:36;;;;;;;2.58;1.23;;;;;;;1.80;84.78;100289.63;6212300;23;20062;-83
2022/01/08 05:53:39;;;;;;;2.08;1.20;;;;;;;1.78;84.55;100296.53;6212172;23;20027;-83
2022/01/08 05:56:42;;;;;;;2.30;1.15;;;;;;;1.89;84.40;100302.31;6211459;23;20031;-83
2022/01/08 05:59:48;;;;;;;3.05;1.50;;;;;;;1.90;83.77;100300.59;6209987;23;20083;-83
2022/01/08 06:02:58;;;;;;;4.60;1.65;;;;;;;1.90;84.21;100313.47;6209958;23;20410;-83
2022/01/08 06:06:07;;;;;;;2.78;1.83;;;;;;;1.81;84.36;100310.19;6210608;23;20028;-83
2022/01/08 06:09:11;;;;;;;3.28;2.00;;;;;;;1.86;84.49;100317.84;6205190;23;20027;-83
2022/01/08 06:12:15;;;;;;;4.03;2.13;;;;;;;1.79;84.51;100317.13;6209054;23;20047;-83
2022/01/08 06:15:20;;;;;;;2.97;2.20;;;;;;;1.87;84.60;100329.84;6211243;23;20467;-83
2022/01/08 06:18:27;;;;;;;3.40;2.17;;;;;;;1.90;84.39;100334.94;6210320;23;20537;-83
2022/01/08 06:21:31;;;;;;;4.55;2.80;;;;;;;1.82;84.29;100331.69;6210517;23;20078;-83
2022/01/08 06:24:35;;;;;;;3.47;2.47;;;;;;;1.71;84.59;100334.47;6208515;23;20024;-83
2022/01/08 06:27:39;;;;;;;6.45;3.72;;;;;;;1.63;85.28;100332.03;6208684;23;20101;-83
2022/01/08 06:30:42;;;;;;;4.00;2.88;;;;;;;1.80;84.99;100338.59;6208776;23;20404;-83
2022/01/08 06:33:46;;;;;;;3.92;2.42;;;;;;;1.75;84.60;100340.41;6209958;23;20023;-83
2022/01/08 06:36:50;;;;;;;3.47;2.28;;;;;;;1.77;84.55;100351.53;6210215;23;20031;-83
2022/01/08 06:39:54;;;;;;;4.75;2.72;;;;;;;1.76;84.70;100355.84;6209014;23;20051;-83
2022/01/08 06:42:58;;;;;;;3.90;2.40;;;;;;;1.79;84.58;100357.53;6209347;23;20087;-83
2022/01/08 06:46:02;;;;;;;3.95;2.38;;;;;;;1.83;84.58;100364.31;6209556;23;20071;-83
2022/01/08 06:49:05;;;;;;;5.95;3.47;;;;;;;1.62;85.44;100360.41;6209997;23;20023;-83
2022/01/08 06:52:08;;;;;;;5.13;3.28;;;;;;;1.79;85.09;100353.22;6209789;23;20074;-83
2022/01/08 06:55:14;;;;;;;4.53;3.03;;;;;;;1.87;84.84;100355.63;6185186;23;20023;-83
2022/01/08 06:58:21;;;;;;;3.40;2.47;;;;;;;1.84;84.55;100355.69;6208974;23;20067;-83
2022/01/08 07:01:26;;;;;;;4.22;2.08;;;;;;;1.89;84.53;100359.06;6208613;23;20656;-83
2022/01/08 07:04:30;;;;;;;4.95;3.33;;;;;;;1.81;84.93;100366.06;6208643;23;20023;-80
2022/01/08 07:07:35;;;;;;;7.05;4.28;;;;;;;1.55;85.31;100374.28;6206174;23;20051;-84
2022/01/08 07:10:40;;;;;;;7.32;5.13;;;;;;;1.59;85.76;100378.50;6206146;23;20082;-84
2022/01/08 07:13:45;;;;;;;8.32;5.10;;;;;;;1.57;85.66;100386.25;6206469;23;20020;-83
2022/01/08 07:16:54;;;;;;;6.05;4.05;;;;;;;1.60;85.52;100393.94;6209324;23;20047;-83
2022/01/08 07:25:09;;;;;;;13.50;8.65;;;;;;;1.70;85.04;100411.81;6204091;23;20060;-84
2022/01/08 07:28:15;;;;;;;15.70;9.48;;;;;;;1.74;84.73;100410.88;6187063;23;20348;-84
2022/01/08 07:31:23;;;;;;;57.10;30.98;;;;;;;1.69;85.13;100438.47;6208831;23;20079;-85
2022/01/08 07:40:06;;;;;;;74.20;40.78;;;;;;;1.53;85.51;100446.47;6212481;23;20020;-84
2022/01/08 07:43:09;;;;;;;62.50;36.85;;;;;;;1.48;85.46;100435.38;6204992;23;20094;-84
2022/01/08 07:46:13;;;;;;;;;;;;;;;1.53;85.72;100446.47;6190132;23;20022;-85
2022/01/08 07:49:16;;;;;;;28.30;16.77;;;;;;;1.59;85.11;100448.91;6209374;23;19914;-85
2022/01/08 07:52:22;;;;;;;24.98;15.35;;;;;;;1.61;85.17;100454.91;6208896;23;20027;-84
2022/01/08 07:55:28;;;;;;;19.70;13.55;;;;;;;1.67;84.68;100456.53;6191758;23;20020;-85
2022/01/08 07:58:31;;;;;;;14.57;8.80;;;;;;;1.69;84.47;100448.78;6209340;23;20031;-85
2022/01/08 08:01:35;;;;;;;17.02;11.55;;;;;;;1.63;84.71;100450.59;6190472;23;20055;-84
2022/01/08 08:04:39;;;;;;;9.63;6.97;;;;;;;1.62;84.88;100455.75;6208442;23;20024;-85
2022/01/08 08:07:42;;;;;;;8.60;5.78;;;;;;;1.67;84.33;100460.84;6209359;23;20078;-84
2022/01/08 08:10:50;;;;;;;13.50;8.13;;;;;;;1.68;84.81;100470.28;6207373;23;20063;-84
2022/01/08 08:13:53;;;;;;;12.68;7.97;;;;;;;1.66;85.02;100474.59;6190543;23;20417;-85
2022/01/08 08:16:57;;;;;;;12.70;6.47;;;;;;;1.61;84.99;100472.94;6209890;23;20094;-85
2022/01/08 08:20:02;;;;;;;9.27;5.85;;;;;;;1.77;84.69;100480.44;6208057;23;20886;-86
2022/01/08 08:23:08;;;;;;;7.05;4.43;;;;;;;1.79;84.34;100481.28;6189894;23;20395;-85
2022/01/08 08:26:11;;;;;;;9.65;4.60;;;;;;;1.85;84.16;100474.28;6208682;23;20043;-85
2022/01/08 08:29:14;;;;;;;;;;;;;;;1.72;84.92;100477.06;6209484;23;20031;-85
2022/01/08 08:32:18;;;;;;;12.63;4.85;;;;;;;1.74;84.80;100480.50;6209675;23;19942;-84
2022/01/08 08:35:21;;;;;;;;;;;;;;;1.67;84.61;100481.47;6209567;23;20348;-84
2022/01/08 08:38:24;;;;;;;9.87;5.80;;;;;;;1.62;84.09;100489.25;6210143;23;19962;-84
2022/01/08 08:41:29;;;;;;;12.23;6.15;;;;;;;1.53;83.45;100477.41;6208796;23;20143;-84
2022/01/08 08:44:34;;;;;;;18.33;5.00;;;;;;;1.60;83.68;100480.72;6208550;23;20020;-85
2022/01/08 08:47:39;;;;;;;9.82;4.53;;;;;;;1.81;83.46;100484.66;6208022;23;20062;-85
2022/01/08 08:50:46;;;;;;;12.63;4.63;;;;;;;1.76;83.86;100487.31;6208874;23;20072;-85
2022/01/08 08:53:49;;;;;;;13.00;5.07;;;;;;;1.80;83.02;100477.81;6208383;23;20055;-84
2022/01/08 08:56:52;;;;;;;11.63;4.57;;;;;;;1.85;83.00;100481.13;6209187;23;20032;-84
2022/01/08 08:59:56;;;;;;;12.10;5.40;;;;;;;1.91;82.78;100482.78;6209617;23;20027;-84
2022/01/08 09:02:59;;;;;;;10.18;4.60;;;;;;;1.67;83.11;100478.91;6207367;23;20471;-84
2022/01/08 09:06:03;;;;;;;7.80;3.92;;;;;;;1.78;nan;100482.13;6208507;23;20020;-84
2022/01/08 09:09:06;;;;;;;11.60;4.82;;;;;;;1.82;82.80;100476.06;6208583;23;20028;-84
2022/01/08 09:12:14;;;;;;;10.90;5.88;;;;;;;1.82;83.15;100473.50;6206772;23;20031;-85
2022/01/08 09:15:24;;;;;;;14.85;7.07;;;;;;;1.75;83.65;100474.44;6208199;23;20114;-85
2022/01/08 09:18:27;;;;;;;14.93;7.53;;;;;;;1.63;83.31;100476.38;6206993;23;20068;-84
2022/01/08 09:21:30;;;;;;;;;;;;;;;1.59;83.26;100469.53;6209348;23;20027;-85
2022/01/08 09:24:36;;;;;;;12.25;5.85;;;;;;;1.68;83.11;100472.84;6208325;23;20297;-84
2022/01/08 09:27:39;;;;;;;9.48;4.85;;;;;;;1.68;82.70;100473.69;6208744;23;20565;-84
2022/01/08 09:30:43;;;;;;;10.02;5.18;;;;;;;1.61;83.00;100475.53;6206239;23;20067;-84
2022/01/08 09:33:47;;;;;;;22.75;12.68;;;;;;;1.53;82.57;100479.97;6208104;23;20352;-85
2022/01/08 09:36:50;;;;;;;;;;;;;;;1.48;83.09;100492.06;6173071;23;20075;-85
2022/01/08 09:39:54;;;;;;;21.55;9.80;;;;;;;1.43;83.31;100487.84;6208568;23;19914;-83
2022/01/08 09:42:57;;;;;;;;;;;;;;;1.30;83.39;100492.34;6210042;23;20055;-83
2022/01/08 09:46:01;;;;;;;9.13;5.90;;;;;;;1.33;83.97;100484.56;6207556;23;20516;-84
2022/01/08 09:49:05;;;;;;;10.02;4.82;;;;;;;1.44;83.87;100487.84;6208020;23;20027;-81
2022/01/08 09:52:08;;;;;;;12.50;6.97;;;;;;;1.68;83.04;100467.69;6208517;23;20071;-81
2022/01/08 09:55:11;;;;;;;;;;;;;;;1.66;83.07;100474.59;6208327;23;20099;-81
2022/01/08 09:58:15;;;;;;;66.32;33.90;;;;;;;1.62;82.91;100469.50;6208845;23;20260;-80
2022/01/08 10:01:28;;;;;;;101.50;62.70;;;;;;;1.79;81.94;100476.97;6208407;23;20027;-80
2022/01/08 10:04:35;;;;;;;26.60;14.73;;;;;;;1.83;82.43;100477.75;6209331;23;20449;-86
2022/01/08 10:07:40;;;;;;;14.27;6.97;;;;;;;2.04;81.88;100479.09;6190739;23;20078;-87
2022/01/08 10:10:59;;;;;;;10.25;5.55;;;;;;;2.01;81.89;100480.03;6209548;23;20028;-88
2022/01/08 10:14:15;;;;;;;11.68;5.28;;;;;;;1.82;81.45;100470.91;6206139;23;20062;-88
2022/01/08 10:17:42;;;;;;;25.92;17.73;;;;;;;1.79;82.04;100468.38;6207705;23;20059;-90
2022/01/08 10:20:49;;;;;;;10.70;5.90;;;;;;;1.97;81.64;100460.31;6209248;23;20082;-90
2022/01/08 10:23:55;;;;;;;12.20;5.05;;;;;;;1.90;81.77;100469.03;6206749;23;20345;-90
2022/01/08 10:27:04;;;;;;;8.43;4.90;;;;;;;1.92;81.70;100462.13;6209184;23;20588;-84
2022/01/08 10:30:23;;;;;;;12.68;5.22;;;;;;;1.92;81.56;100456.97;6209347;23;20027;-84
2022/01/08 10:33:26;;;;;;;10.95;5.35;;;;;;;1.79;82.54;100455.50;6209741;23;20109;-86
2022/01/08 10:36:32;;;;;;;13.30;7.05;;;;;;;2.33;81.20;100452.78;6210555;23;20063;-83
2022/01/08 10:39:39;;;;;;;11.75;5.35;;;;;;;2.42;80.05;100452.56;6210578;23;20535;-84
2022/01/08 10:42:45;;;;;;;16.17;5.72;;;;;;;2.83;79.98;100453.44;6210179;23;20124;-84
2022/01/08 10:45:48;;;;;;;11.48;4.70;;;;;;;2.89;80.53;100448.16;6210689;23;20055;-86
2022/01/08 10:48:51;;;;;;;9.38;4.38;;;;;;;2.77;79.71;100444.09;6209784;23;20039;-89
2022/01/08 10:52:02;;;;;;;;;;;;;;;2.75;81.17;100445.88;6210767;23;20063;-89
2022/01/08 10:55:06;;;;;;;6.03;2.85;;;;;;;2.95;81.48;100437.69;6209279;23;20232;-87
2022/01/08 10:58:09;;;;;;;13.35;4.55;;;;;;;3.16;80.46;100436.38;6208331;23;20030;-86
2022/01/08 11:01:13;;;;;;;;;;;;;;;3.31;80.64;100435.13;6210410;23;20028;-85
2022/01/08 11:04:34;;;;;;;11.50;4.30;;;;;;;3.35;80.35;100426.44;6210931;23;19915;-85
2022/01/08 11:07:41;;;;;;;10.30;4.13;;;;;;;3.51;80.13;100411.41;6209200;23;20360;-86
2022/01/08 11:10:44;;;;;;;8.55;3.58;;;;;;;3.43;79.83;100411.56;6191898;23;20514;-82
2022/01/08 11:13:53;;;;;;;13.60;3.83;;;;;;;3.35;80.55;100410.06;6208712;23;20024;-78
2022/01/08 11:16:56;;;;;;;11.60;5.65;;;;;;;3.03;81.30;100391.88;6209515;23;20055;-82
2022/01/08 11:20:14;;;;;;;9.25;5.85;;;;;;;3.06;82.03;100403.00;6209743;23;20059;-83
2022/01/08 11:23:22;;;;;;;6.68;3.63;;;;;;;3.02;81.68;100392.75;6208438;23;20032;-90
2022/01/08 11:26:28;;;;;;;9.45;3.25;;;;;;;3.15;81.25;100389.88;6208615;23;20039;-84
2022/01/08 11:29:34;;;;;;;7.53;3.35;;;;;;;2.97;81.90;100384.28;6208283;23;20027;-79
2022/01/08 11:32:39;;;;;;;11.27;4.80;;;;;;;2.92;79.62;100387.84;6191742;23;20026;-82
2022/01/08 11:35:43;;;;;;;10.93;4.15;;;;;;;3.02;81.78;100382.41;6211160;23;20039;-85
2022/01/08 11:38:48;;;;;;;7.90;3.72;;;;;;;3.15;82.17;100377.81;6210437;23;20028;-79
2022/01/08 11:41:52;;;;;;;8.50;3.22;;;;;;;3.07;82.03;100368.56;6208852;23;20040;-83
2022/01/08 11:44:56;;;;;;;10.13;3.20;;;;;;;3.19;81.77;100368.25;6191266;23;20365;-81
2022/01/08 11:48:03;;;;;;;9.15;4.40;;;;;;;3.18;81.73;100361.38;6209696;23;20416;-88
2022/01/08 11:51:06;;;;;;;17.38;10.15;;;;;;;3.13;82.03;100356.34;6190874;23;20355;-85
2022/01/08 11:54:10;;;;;;;12.95;6.07;;;;;;;3.19;81.95;100352.72;6190309;23;20095;-80
2022/01/08 11:57:14;;;;;;;;;;;;;;;3.27;81.83;100348.25;6209173;23;20043;-81
2022/01/08 12:00:48;;;;;;;12.85;5.10;;;;;;;3.35;81.85;100338.56;6209927;23;19954;-79
2022/01/08 12:03:52;;;;;;;14.38;4.50;;;;;;;3.49;81.02;100328.72;6210031;23;20340;-82
2022/01/08 12:06:56;;;;;;;13.88;5.85;;;;;;;3.29;81.19;100323.22;6208928;23;20062;-82
2022/01/08 12:10:18;;;;;;;12.20;4.82;;;;;;;3.43;81.02;100305.59;6208139;23;20288;-76
2022/01/08 12:13:43;;;;;;;8.90;4.28;;;;;;;3.38;81.44;100297.13;6209929;23;20071;-80
2022/01/08 12:16:48;;;;;;;9.32;4.38;;;;;;;3.05;82.87;100288.50;6208735;23;20070;-81
2022/01/08 12:19:56;;;;;;;8.10;3.80;;;;;;;3.18;82.24;100283.88;6208869;23;20351;-80
2022/01/08 12:23:35;;;;;;;9.70;3.97;;;;;;;2.96;83.07;100273.22;6209063;23;20471;-80
2022/01/08 12:26:39;;;;;;;8.55;4.13;;;;;;;3.17;82.64;100270.13;6211082;23;20079;-80
2022/01/08 12:29:48;;;;;;;10.52;3.20;;;;;;;3.27;82.13;100262.97;6210589;23;20139;-78
2022/01/08 12:33:17;;;;;;;8.35;4.55;;;;;;;3.38;79.97;100258.38;6210385;23;20071;-79
2022/01/08 12:36:32;;;;;;;6.97;3.30;;;;;;;3.47;80.94;100252.94;6208650;23;20024;-80
2022/01/08 12:39:44;;;;;;;8.70;3.05;;;;;;;3.54;80.60;100238.09;6207765;23;20362;-79
2022/01/08 12:42:47;;;;;;;7.85;2.53;;;;;;;3.61;81.11;100237.06;6207388;23;20094;-79
2022/01/08 12:46:09;;;;;;;8.68;3.58;;;;;;;3.32;81.34;100227.53;6208949;23;20023;-85
2022/01/08 12:49:14;;;;;;;19.42;8.27;;;;;;;3.39;80.89;100216.13;6208312;23;20079;-80
2022/01/08 12:52:18;;;;;;;29.05;13.55;;;;;;;3.59;80.56;100206.97;6207618;23;20055;-80
2022/01/08 12:55:21;;;;;;;;;;;;;;;3.67;80.31;100207.56;6209512;23;20019;-79
2022/01/08 12:58:30;;;;;;;12.52;4.95;;;;;;;3.57;80.71;100199.22;6191343;23;19922;-81
2022/01/08 13:01:36;;;;;;;8.73;3.50;;;;;;;3.71;80.38;100199.69;6209216;23;20032;-79
2022/01/08 13:04:40;;;;;;;8.40;2.50;;;;;;;3.66;80.50;100193.78;6190594;23;20023;-78
2022/01/08 13:07:50;;;;;;;10.95;3.05;;;;;;;3.32;81.09;100188.75;6207869;23;20023;-78
2022/01/08 13:11:02;;;;;;;5.68;2.17;;;;;;;3.47;80.21;100187.47;6208951;23;20027;-78
2022/01/08 13:14:09;;;;;;;6.80;2.63;;;;;;;3.66;80.28;100182.63;6209038;23;20070;-78
2022/01/08 13:17:15;;;;;;;12.10;3.88;;;;;;;3.49;80.47;100176.19;6208916;23;20285;-78
2022/01/08 13:20:19;;;;;;;9.20;2.55;;;;;;;3.51;80.80;100178.75;6207937;23;20469;-78
2022/01/08 13:23:25;;;;;;;;;;;;;;;3.39;77.65;100174.78;6208330;23;20079;-77
2022/01/08 13:26:36;;;;;;;12.50;3.38;;;;;;;3.54;76.87;100178.63;6208827;23;19923;-78
2022/01/08 13:29:43;;;;;;;8.18;3.55;;;;;;;3.47;80.23;100165.03;6208887;23;20075;-78
2022/01/08 13:32:46;;;;;;;9.27;2.67;;;;;;;3.38;79.92;100160.16;6208454;23;20067;-80
2022/01/08 13:36:05;;;;;;;4.78;2.30;;;;;;;3.47;80.84;100152.13;6208611;23;20019;-78
2022/01/08 13:39:09;;;;;;;14.85;6.85;;;;;;;3.48;80.89;100132.31;6188728;23;20078;-78
2022/01/08 13:42:27;;;;;;;5.50;2.58;;;;;;;3.58;80.99;100122.53;6208947;23;20075;-78
2022/01/08 13:45:31;;;;;;;5.45;2.33;;;;;;;3.62;81.34;100118.97;6209067;23;20530;-78
2022/01/08 13:48:34;;;;;;;5.63;2.08;;;;;;;3.60;81.63;100113.81;6208167;23;20066;-79
2022/01/08 13:51:38;;;;;;;7.65;3.45;;;;;;;3.45;81.46;100101.38;6208983;23;20403;-79
2022/01/08 13:54:42;;;;;;;14.98;2.65;;;;;;;3.20;80.51;100090.91;6208255;23;20070;-78
2022/01/08 13:57:48;;;;;;;5.35;2.22;;;;;;;3.44;79.70;100079.00;6208990;23;20035;-79
2022/01/08 14:00:59;;;;;;;5.15;2.17;;;;;;;3.11;78.18;100073.09;6205944;23;20066;-78
2022/01/08 14:04:04;;;;;;;4.88;2.05;;;;;;;3.35;78.27;100064.63;6209390;23;20019;-78
2022/01/08 14:07:07;;;;;;;3.53;1.42;;;;;;;3.50;76.58;100065.88;6211287;23;20027;-78
2022/01/08 14:10:13;;;;;;;4.55;2.00;;;;;;;3.56;78.96;100049.34;6210355;23;20078;-78
2022/01/08 14:13:19;;;;;;;5.95;2.03;;;;;;;3.49;79.71;100041.78;6210286;23;20126;-78
2022/01/08 14:16:28;;;;;;;4.25;1.85;;;;;;;3.34;78.33;100029.31;6208759;23;20024;-79
2022/01/08 14:19:34;;;;;;;7.55;1.85;;;;;;;3.56;80.09;100026.09;6209237;23;20115;-79
2022/01/08 14:22:37;;;;;;;6.07;1.80;;;;;;;3.49;77.51;100018.53;6208685;23;20078;-79
2022/01/08 14:25:41;;;;;;;5.18;1.75;;;;;;;3.19;77.39;100007.41;6208203;23;20351;-79
2022/01/08 14:29:01;;;;;;;6.38;2.08;;;;;;;2.94;78.44;100004.69;6210933;23;20110;-80
2022/01/08 14:32:07;;;;;;;5.65;1.20;;;;;;;2.88;77.61;99998.88;6208659;23;20062;-77
2022/01/08 14:35:11;;;;;;;4.38;1.52;;;;;;;3.18;79.03;99989.34;6208889;23;20023;-79
2022/01/08 14:38:14;;;;;;;9.25;1.67;;;;;;;3.10;79.19;99975.84;6209604;23;20047;-79
2022/01/08 14:41:34;;;;;;;6.43;1.40;;;;;;;3.09;80.47;99971.53;6210808;23;20082;-79
2022/01/08 14:44:41;;;;;;;5.30;1.52;;;;;;;3.07;79.39;99963.84;6209001;23;20352;-79
2022/01/08 14:47:44;;;;;;;7.10;2.05;;;;;;;2.81;79.16;99964.63;6208714;23;20510;-78
2022/01/08 14:50:48;;;;;;;3.88;1.40;;;;;;;2.92;79.57;99966.88;6210557;23;20399;-79
2022/01/08 14:53:51;;;;;;;4.53;1.38;;;;;;;2.75;80.11;99959.66;6209813;23;20027;-79
2022/01/08 14:56:56;;;;;;;6.40;2.05;;;;;;;2.52;81.39;99963.75;6210092;23;20032;-79
2022/01/08 15:00:00;;;;;;;7.97;1.88;;;;;;;2.69;81.57;99962.41;6209605;23;20104;-79
2022/01/08 15:03:04;;;;;;;7.18;1.50;;;;;;;2.82;81.43;99956.00;6209844;23;20027;-78
2022/01/08 15:06:07;;;;;;;6.20;1.50;;;;;;;3.00;81.56;99937.38;6208789;23;20395;-78
2022/01/08 15:09:11;;;;;;;5.10;1.50;;;;;;;2.90;82.23;99922.19;6210186;23;20048;-77
2022/01/08 15:12:14;;;;;;;3.95;1.45;;;;;;;2.97;82.04;99914.22;6210960;23;20027;-77
2022/01/08 15:15:18;;;;;;;4.45;1.33;;;;;;;3.13;81.93;99896.50;6209447;23;20023;-77
2022/01/08 15:18:21;;;;;;;;;;;;;;;3.14;81.56;99890.44;6210058;23;20344;-77
2022/01/08 15:21:25;;;;;;;4.15;1.23;;;;;;;3.09;81.95;99891.47;6209257;23;19994;-77
2022/01/08 15:24:28;;;;;;;;;;;;;;;3.08;82.23;99879.47;6210033;23;20143;-76
2022/01/08 15:27:32;;;;;;;6.60;1.45;;;;;;;3.02;81.90;99871.00;6208956;23;19954;-78
2022/01/08 15:30:35;;;;;;;7.50;1.38;;;;;;;2.98;82.23;99863.41;6209855;23;20059;-77
2022/01/08 15:33:38;;;;;;;;;;;;;;;2.99;82.29;99847.00;6211569;23;20287;-77
2022/01/08 15:36:42;;;;;;;5.78;1.52;;;;;;;2.96;82.55;99847.94;6208348;23;20022;-77
2022/01/08 15:39:47;;;;;;;5.35;1.50;;;;;;;3.01;82.11;99829.75;6209225;23;20078;-78
2022/01/08 15:42:53;;;;;;;5.47;1.90;;;;;;;2.95;82.51;99828.19;6191251;23;20027;-78
2022/01/08 15:45:56;;;;;;;3.88;1.10;;;;;;;2.96;82.65;99829.03;6191259;23;20059;-79
2022/01/08 15:48:59;;;;;;;3.85;1.48;;;;;;;2.97;82.78;99816.09;6209834;23;20052;-79
2022/01/08 15:52:03;;;;;;;7.30;2.30;;;;;;;3.02;82.70;99809.00;6210364;23;20024;-77
2022/01/08 15:55:07;;;;;;;7.22;2.10;;;;;;;2.99;82.73;99803.09;6210087;23;20023;-80
2022/01/08 16:12:58;;;;;;;6.78;2.90;;;;;;;2.64;84.11;99750.03;6210105;23;20356;-80
2022/01/08 16:16:01;;;;;;;;;;;;;;;2.48;84.54;99745.34;6208191;23;20047;-81
2022/01/08 16:19:05;;;;;;;9.25;3.83;;;;;;;2.47;85.03;99729.94;6209342;23;20328;-80
2022/01/08 16:22:08;;;;;;;8.38;5.20;;;;;;;2.55;84.38;99718.47;6209156;23;20089;-81
2022/01/08 16:25:11;;;;;;;;;;;;;;;2.54;84.69;99709.03;6209319;23;20023;-81
2022/01/08 16:28:18;;;;;;;7.05;3.22;;;;;;;2.64;84.08;99707.00;6207774;23;19922;-78
2022/01/08 16:31:23;;;;;;;6.90;3.10;;;;;;;2.56;84.66;99704.69;6207593;23;20368;-78
2022/01/08 16:34:26;;;;;;;6.22;2.38;;;;;;;2.56;84.89;99691.78;6209466;23;20039;-78
2022/01/08 16:37:30;;;;;;;11.18;4.65;;;;;;;2.40;85.32;99684.59;6209318;23;20031;-78
2022/01/08 16:40:34;;;;;;;6.03;3.03;;;;;;;2.50;85.09;99673.91;6209210;23;20685;-78
2022/01/08 16:43:38;;;;;;;5.57;2.58;;;;;;;2.21;86.61;99658.53;6208965;23;20027;-78
2022/01/08 16:46:41;;;;;;;;;;;;;;;2.27;85.32;99653.19;6209340;23;20364;-78
2022/01/08 16:49:44;;;;;;;7.38;1.75;;;;;;;2.55;84.61;99633.31;6208532;23;19991;-78
2022/01/08 16:52:48;;;;;;;3.88;2.15;;;;;;;2.46;85.35;99627.63;6208976;23;20396;-77
2022/01/08 16:55:52;;;;;;;4.35;1.58;;;;;;;2.46;84.81;99618.13;6210084;23;20019;-77
2022/01/08 16:58:56;;;;;;;4.25;1.92;;;;;;;2.34;84.84;99613.38;6209813;23;20043;-77
2022/01/08 17:01:59;;;;;;;4.68;1.60;;;;;;;2.42;83.51;99601.06;6208754;23;20058;-77
2022/01/08 17:05:04;;;;;;;5.90;1.75;;;;;;;2.31;86.20;99587.69;6208787;23;20028;-77
2022/01/08 17:08:09;;;;;;;6.07;1.40;;;;;;;2.31;84.46;99582.53;6208465;23;20143;-78
2022/01/08 17:11:15;;;;;;;5.15;1.67;;;;;;;2.31;85.80;99567.06;6208070;23;20027;-78
2022/01/08 17:14:19;;;;;;;5.50;1.60;;;;;;;2.50;85.11;99551.78;6209042;23;20027;-77
2022/01/08 17:17:22;;;;;;;;;;;;;;;2.59;85.00;99545.47;6210310;23;20027;-78
2022/01/08 17:20:28;;;;;;;4.20;1.40;;;;;;;2.45;84.56;99538.19;6208647;23;20381;-78
2022/01/08 17:23:31;;;;;;;4.57;1.45;;;;;;;2.53;83.05;99526.72;6208771;23;20503;-78
2022/01/08 17:26:35;;;;;;;;;;;;;;;2.52;84.84;99519.00;6209045;23;20086;-78
2022/01/08 17:29:38;;;;;;;2.50;0.93;;;;;;;2.52;84.42;99506.97;6208354;23;20290;-77
2022/01/08 17:32:42;;;;;;;3.13;0.95;;;;;;;2.70;83.41;99507.19;6208700;23;20063;-78
2022/01/08 17:36:11;;;;;;;5.22;1.33;;;;;;;2.66;83.64;99485.00;6208607;23;20391;-77
2022/01/08 17:39:15;;;;;;;4.68;1.48;;;;;;;2.60;83.34;99473.16;6210284;23;20066;-77
2022/01/08 17:42:18;;;;;;;5.82;2.40;;;;;;;2.67;84.34;99460.84;6210229;23;20023;-78
2022/01/08 17:45:23;;;;;;;;;;;;;;;2.81;84.05;99450.88;6210805;23;20047;-78
2022/01/08 17:48:27;;;;;;;2.28;0.82;;;;;;;2.63;83.03;99443.81;6210636;23;20343;-78
2022/01/08 17:51:30;;;;;;;2.55;0.90;;;;;;;2.69;83.65;99428.09;6210745;23;20023;-78
2022/01/08 17:54:39;;;;;;;;;;;;;;;2.77;83.06;99431.22;6211975;23;20478;-78
2022/01/08 17:57:42;;;;;;;2.08;0.73;;;;;;;2.61;82.46;99415.47;6211735;23;19939;-78
2022/01/08 18:00:46;;;;;;;2.72;0.77;;;;;;;2.51;84.00;99414.13;6210961;23;20275;-78
2022/01/08 18:03:49;;;;;;;3.17;0.50;;;;;;;2.60;83.95;99405.22;6209520;23;20073;-78
2022/01/08 18:06:53;;;;;;;;;;;;;;;2.78;83.55;99394.19;6210978;23;20451;-78